createdAt,value
2023-04-23T00:01:27.856Z,207.10
2023-04-23T00:03:58.962Z,193.63
2023-04-23T00:06:30.346Z,205.45
2023-04-23T00:09:00.568Z,201.77
2023-04-23T00:11:28.762Z,206.10
2023-04-23T00:13:56.046Z,204.25
2023-04-23T00:16:24.522Z,193.00
2023-04-23T00:18:51.716Z,201.82
2023-04-23T00:21:18.698Z,203.02
2023-04-23T00:23:46.176Z,205.02
2023-04-23T00:26:13.128Z,217.43
2023-04-23T00:28:40.217Z,206.00
2023-04-23T00:31:07.776Z,204.60
2023-04-23T00:33:34.846Z,204.73
2023-04-23T00:36:01.855Z,199.83
2023-04-23T00:38:28.874Z,200.07
2023-04-23T00:40:55.967Z,195.60
2023-04-23T00:43:24.119Z,199.70
2023-04-23T00:45:51.701Z,197.37
2023-04-23T00:48:18.775Z,201.93
2023-04-23T00:50:46.725Z,200.82
2023-04-23T00:53:13.834Z,203.70
2023-04-23T00:55:41.067Z,199.20
2023-04-23T00:58:08.721Z,196.60
2023-04-23T01:00:46.339Z,191.68
2023-04-23T01:03:13.620Z,199.63
2023-04-23T01:05:43.078Z,205.90
2023-04-23T01:08:16.965Z,195.97
2023-04-23T01:10:45.809Z,192.82
2023-04-23T01:13:13.943Z,193.87
2023-04-23T01:15:41.258Z,197.37
2023-04-23T01:18:08.625Z,189.07
2023-04-23T01:20:36.067Z,191.57
2023-04-23T01:23:06.691Z,187.97
2023-04-23T01:25:34.524Z,196.73
2023-04-23T01:28:01.867Z,191.80
2023-04-23T01:30:31.135Z,191.47
2023-04-23T01:32:58.812Z,190.57
2023-04-23T01:35:26.649Z,189.37
2023-04-23T01:37:55.306Z,194.37
2023-04-23T01:40:22.658Z,192.40
2023-04-23T01:42:50.324Z,189.57
2023-04-23T01:45:20.481Z,189.87
2023-04-23T01:47:50.616Z,185.47
2023-04-23T01:50:17.946Z,188.80
2023-04-23T01:52:46.407Z,184.73
2023-04-23T01:55:14.246Z,186.70
2023-04-23T01:57:41.238Z,185.35
2023-04-23T02:00:12.111Z,186.27
2023-04-23T02:02:42.063Z,181.00
2023-04-23T02:05:16.639Z,178.82
2023-04-23T02:07:45.478Z,185.27
2023-04-23T02:10:12.996Z,186.83
2023-04-23T02:12:40.448Z,182.23
2023-04-23T02:15:11.275Z,187.43
2023-04-23T02:17:39.999Z,187.23
2023-04-23T02:20:11.430Z,187.43
2023-04-23T02:22:41.285Z,179.50
2023-04-23T02:25:08.945Z,179.10
2023-04-23T02:27:36.481Z,184.85
2023-04-23T02:30:04.438Z,179.23
2023-04-23T02:32:31.629Z,184.17
2023-04-23T02:34:59.702Z,168.33
2023-04-23T02:37:27.139Z,162.20
2023-04-23T02:39:54.538Z,180.07
2023-04-23T02:42:21.547Z,174.77
2023-04-23T02:44:48.530Z,181.30
2023-04-23T02:47:15.520Z,182.43
2023-04-23T02:49:42.477Z,156.77
2023-04-23T02:52:10.078Z,164.27
2023-04-23T02:54:37.492Z,206.17
2023-04-23T02:57:06.310Z,227.17
2023-04-23T02:59:34.015Z,219.77
2023-04-23T03:02:01.053Z,222.53
2023-04-23T03:04:28.089Z,223.97
2023-04-23T03:06:55.649Z,235.37
2023-04-23T03:09:22.672Z,212.60
2023-04-23T03:11:50.016Z,220.43
2023-04-23T03:14:17.013Z,220.53
2023-04-23T03:16:44.467Z,212.67
2023-04-23T03:19:11.469Z,222.80
2023-04-23T03:21:39.349Z,213.93
2023-04-23T03:24:08.120Z,211.20
2023-04-23T03:26:35.592Z,220.93
2023-04-23T03:29:02.999Z,213.53
2023-04-23T03:31:30.072Z,219.43
2023-04-23T03:33:57.684Z,218.40
2023-04-23T03:36:32.442Z,213.10
2023-04-23T03:39:02.235Z,215.87
2023-04-23T03:41:37.540Z,211.87
2023-04-23T03:44:04.937Z,208.03
2023-04-23T03:46:45.787Z,215.93
2023-04-23T03:49:14.434Z,210.17
2023-04-23T03:51:41.409Z,214.20
2023-04-23T03:54:09.176Z,211.90
2023-04-23T03:56:41.751Z,208.50
2023-04-23T03:59:14.654Z,214.90
2023-04-23T04:01:42.752Z,202.33
2023-04-23T04:04:10.270Z,207.47
2023-04-23T04:06:37.421Z,212.67
2023-04-23T04:09:04.364Z,211.90
2023-04-23T04:11:31.316Z,212.00
2023-04-23T04:13:58.272Z,202.63
2023-04-23T04:16:25.728Z,209.60
2023-04-23T04:18:54.449Z,208.73
2023-04-23T04:21:23.223Z,208.77
2023-04-23T04:23:50.167Z,211.87
2023-04-23T04:26:17.537Z,212.47
2023-04-23T04:28:45.465Z,208.20
2023-04-23T04:31:14.447Z,209.07
2023-04-23T04:33:42.083Z,204.87
2023-04-23T04:36:09.484Z,211.93
2023-04-23T04:38:37.968Z,209.00
2023-04-23T04:41:06.434Z,207.63
2023-04-23T04:43:34.485Z,209.27
2023-04-23T04:46:01.557Z,211.03
2023-04-23T04:48:28.573Z,208.20
2023-04-23T04:50:55.746Z,210.43
2023-04-23T04:53:22.978Z,209.30
2023-04-23T04:55:49.984Z,211.90
2023-04-23T04:58:16.984Z,216.80
2023-04-23T05:00:44.533Z,209.50
2023-04-23T05:03:14.329Z,215.80
2023-04-23T05:05:41.559Z,206.90
2023-04-23T05:08:09.358Z,214.33
2023-04-23T05:10:36.999Z,213.27
2023-04-23T05:13:04.433Z,208.17
2023-04-23T05:15:31.768Z,213.67
2023-04-23T05:17:58.813Z,251.30
2023-04-23T05:20:26.125Z,225.60
2023-04-23T05:22:53.125Z,219.60
2023-04-23T05:25:20.176Z,218.00
2023-04-23T05:27:47.178Z,210.07
2023-04-23T05:30:14.349Z,225.43
2023-04-23T05:32:41.533Z,245.60
2023-04-23T05:35:09.130Z,211.27
2023-04-23T05:37:36.111Z,229.43
2023-04-23T05:40:04.805Z,208.73
2023-04-23T05:42:32.147Z,222.80
2023-04-23T05:44:59.108Z,228.03
2023-04-23T05:47:26.120Z,229.47
2023-04-23T05:49:53.184Z,216.77
2023-04-23T05:52:20.118Z,218.40
2023-04-23T05:54:47.475Z,221.77
2023-04-23T05:57:14.653Z,216.00
2023-04-23T05:59:42.018Z,215.90
2023-04-23T06:02:10.907Z,218.43
2023-04-23T06:04:38.542Z,254.33
2023-04-23T06:07:06.857Z,217.70
2023-04-23T06:09:33.836Z,216.53
2023-04-23T06:12:00.978Z,221.80
2023-04-23T06:14:27.942Z,218.07
2023-04-23T06:16:54.893Z,215.17
2023-04-23T06:19:24.960Z,216.47
2023-04-23T06:21:52.109Z,218.60
2023-04-23T06:24:19.059Z,214.30
2023-04-23T06:26:46.234Z,213.63
2023-04-23T06:29:17.342Z,229.40
2023-04-23T06:31:51.955Z,284.55
2023-04-23T06:34:18.959Z,305.02
2023-04-23T06:36:45.860Z,230.50
2023-04-23T06:39:12.824Z,222.43
2023-04-23T06:41:39.805Z,217.00
2023-04-23T06:44:13.854Z,218.30
2023-04-23T06:46:48.044Z,227.95
2023-04-23T06:49:15.601Z,226.77
2023-04-23T06:51:42.631Z,221.65
2023-04-23T06:54:09.595Z,226.98
2023-04-23T06:56:36.786Z,227.35
2023-04-23T06:59:03.749Z,230.07
2023-04-23T07:01:32.430Z,219.63
2023-04-23T07:03:59.380Z,229.00
2023-04-23T07:06:27.774Z,226.65
2023-04-23T07:08:54.777Z,338.17
2023-04-23T07:11:21.770Z,222.85
2023-04-23T07:13:48.758Z,228.02
2023-04-23T07:16:16.094Z,229.63
2023-04-23T07:18:43.174Z,227.63
2023-04-23T07:21:10.186Z,224.55
2023-04-23T07:23:37.254Z,228.05
2023-04-23T07:26:04.221Z,235.32
2023-04-23T07:28:32.190Z,240.63
2023-04-23T07:30:59.245Z,225.93
2023-04-23T07:33:26.427Z,229.32
2023-04-23T07:35:53.373Z,228.45
2023-04-23T07:38:20.366Z,234.55
2023-04-23T07:40:47.726Z,234.68
2023-04-23T07:43:16.823Z,237.35
2023-04-23T07:45:43.821Z,233.07
2023-04-23T07:48:10.972Z,226.13
2023-04-23T07:50:37.951Z,220.98
2023-04-23T07:53:04.987Z,227.15
2023-04-23T07:55:31.929Z,231.18
2023-04-23T07:57:58.918Z,229.18
2023-04-23T08:00:25.848Z,227.38
2023-04-23T08:02:53.912Z,230.10
2023-04-23T08:05:21.325Z,231.73
2023-04-23T08:07:48.362Z,230.02
2023-04-23T08:10:15.466Z,238.35
2023-04-23T08:12:42.501Z,225.18
2023-04-23T08:15:10.683Z,233.98
2023-04-23T08:17:41.421Z,225.18
2023-04-23T08:20:09.093Z,233.13
2023-04-23T08:22:36.076Z,228.52
2023-04-23T08:25:04.599Z,226.20
2023-04-23T08:27:31.719Z,236.80
2023-04-23T08:29:58.665Z,230.65
2023-04-23T08:32:25.835Z,230.73
2023-04-23T08:34:52.897Z,226.00
2023-04-23T08:37:30.397Z,227.05
2023-04-23T08:39:58.583Z,230.65
2023-04-23T08:42:42.783Z,232.60
2023-04-23T08:45:11.454Z,233.95
2023-04-23T08:47:43.788Z,232.25
2023-04-23T08:50:20.000Z,228.23
2023-04-23T08:52:55.553Z,240.25
2023-04-23T08:55:23.641Z,228.57
2023-04-23T08:57:51.776Z,234.38
2023-04-23T09:00:21.603Z,226.48
2023-04-23T09:02:49.649Z,231.30
2023-04-23T09:05:17.339Z,263.83
2023-04-23T09:07:45.040Z,251.07
2023-04-23T09:10:15.479Z,240.15
2023-04-23T09:12:45.187Z,240.60
2023-04-23T09:15:13.343Z,233.50
2023-04-23T09:17:45.985Z,234.02
2023-04-23T09:20:14.861Z,241.30
2023-04-23T09:22:47.283Z,234.63
2023-04-23T09:25:21.073Z,234.65
2023-04-23T09:27:50.285Z,230.40
2023-04-23T09:30:18.316Z,252.38
2023-04-23T09:32:46.647Z,231.68
2023-04-23T09:35:17.114Z,238.85
2023-04-23T09:37:48.995Z,226.20
2023-04-23T09:40:23.278Z,228.70
2023-04-23T09:42:55.733Z,235.25
2023-04-23T09:45:25.584Z,233.40
2023-04-23T09:47:55.930Z,318.13
2023-04-23T09:50:39.525Z,223.15
2023-04-23T09:53:10.717Z,224.00
2023-04-23T09:55:39.793Z,218.75
2023-04-23T09:58:12.448Z,208.45
2023-04-23T10:00:40.795Z,219.48
2023-04-23T10:03:10.006Z,206.30
2023-04-23T10:08:14.633Z,196.38
2023-04-23T10:10:55.200Z,213.07
2023-04-23T10:13:28.110Z,198.95
2023-04-23T10:15:59.084Z,213.88
2023-04-23T10:18:33.361Z,204.00
2023-04-23T10:21:02.731Z,208.73
2023-04-23T10:23:30.878Z,188.55
2023-04-23T10:26:03.447Z,202.45
2023-04-23T10:28:33.073Z,212.82
2023-04-23T10:31:01.091Z,193.38
2023-04-23T10:33:39.967Z,190.77
2023-04-23T10:36:13.307Z,184.57
2023-04-23T10:38:54.938Z,198.10
2023-04-23T10:41:31.032Z,170.18
2023-04-23T10:43:58.182Z,192.50
2023-04-23T10:46:30.415Z,180.80
2023-04-23T10:49:15.198Z,179.07
2023-04-23T10:54:35.155Z,189.77
2023-04-23T10:57:07.257Z,199.95
2023-04-23T10:59:39.446Z,170.63
2023-04-23T11:02:13.663Z,169.15
2023-04-23T11:04:55.087Z,169.65
2023-04-23T11:07:30.948Z,183.77
2023-04-23T11:10:01.504Z,181.95
2023-04-23T11:12:28.422Z,155.75
2023-04-23T11:14:56.694Z,158.52
2023-04-23T11:17:32.928Z,166.00
2023-04-23T11:20:21.270Z,163.85
2023-04-23T11:22:53.027Z,160.40
2023-04-23T11:25:24.855Z,175.48
2023-04-23T11:27:54.183Z,183.25
2023-04-23T11:30:27.802Z,216.30
2023-04-23T11:32:56.998Z,172.80
2023-04-23T11:35:30.353Z,154.18
2023-04-23T11:37:57.563Z,146.40
2023-04-23T11:40:24.762Z,161.90
2023-04-23T11:42:55.194Z,161.30
2023-04-23T11:45:29.136Z,186.68
2023-04-23T11:47:58.354Z,159.60
2023-04-23T11:50:35.573Z,169.82
2023-04-23T11:53:09.000Z,156.88
2023-04-23T11:55:36.616Z,159.73
2023-04-23T11:58:03.993Z,139.88
2023-04-23T12:00:30.972Z,152.07
2023-04-23T12:03:02.348Z,143.18
2023-04-23T12:05:40.414Z,196.73
2023-04-23T12:08:20.463Z,205.07
2023-04-23T12:10:55.395Z,118.45
2023-04-23T12:13:30.705Z,244.45
2023-04-23T12:16:03.782Z,152.23
2023-04-23T12:18:39.066Z,137.90
2023-04-23T12:21:07.533Z,132.25
2023-04-23T12:23:36.196Z,138.40
2023-04-23T12:26:03.684Z,164.15
2023-04-23T12:28:31.250Z,156.13
2023-04-23T12:31:03.062Z,153.13
2023-04-23T12:33:31.733Z,137.95
2023-04-23T12:35:59.862Z,152.13
2023-04-23T12:38:29.367Z,116.38
2023-04-23T12:41:01.758Z,111.60
2023-04-23T12:43:28.881Z,92.35
2023-04-23T12:45:56.422Z,92.55
2023-04-23T12:48:23.384Z,87.68
2023-04-23T12:50:50.317Z,104.55
2023-04-23T12:53:18.616Z,130.20
2023-04-23T12:55:46.006Z,166.45
2023-04-23T12:58:13.060Z,109.47
2023-04-23T13:00:40.035Z,98.13
2023-04-23T13:03:07.825Z,97.35
2023-04-23T13:05:34.825Z,95.70
2023-04-23T13:08:01.869Z,105.13
2023-04-23T13:10:30.848Z,118.35
2023-04-23T13:12:58.044Z,115.72
2023-04-23T13:15:26.459Z,110.22
2023-04-23T13:17:54.171Z,99.30
2023-04-23T13:20:21.714Z,109.93
2023-04-23T13:22:48.772Z,133.23
2023-04-23T13:25:15.843Z,145.38
2023-04-23T13:27:42.776Z,114.22
2023-04-23T13:30:10.957Z,101.40
2023-04-23T13:32:37.898Z,129.18
2023-04-23T13:35:05.512Z,136.18
2023-04-23T13:37:33.642Z,143.50
2023-04-23T13:40:01.287Z,150.82
2023-04-23T13:42:28.244Z,124.82
2023-04-23T13:44:55.270Z,137.43
2023-04-23T13:47:22.408Z,158.20
2023-04-23T13:49:49.784Z,151.23
2023-04-23T13:52:16.778Z,160.52
2023-04-23T13:54:43.756Z,153.10
2023-04-23T13:57:10.788Z,183.98
2023-04-23T13:59:37.786Z,146.05
2023-04-23T14:02:04.736Z,124.70
2023-04-23T14:04:31.774Z,128.65
2023-04-23T14:06:58.730Z,123.18
2023-04-23T14:09:25.742Z,117.15
2023-04-23T14:11:52.877Z,125.43
2023-04-23T14:14:19.833Z,152.10
2023-04-23T14:16:46.790Z,145.45
2023-04-23T14:19:13.797Z,172.48
2023-04-23T14:21:41.626Z,158.20
2023-04-23T14:24:17.735Z,234.15
2023-04-23T14:26:48.675Z,228.45
2023-04-23T14:29:25.312Z,163.20
2023-04-23T14:31:52.750Z,135.30
2023-04-23T14:34:19.698Z,143.57
2023-04-23T14:36:49.185Z,156.70
2023-04-23T14:39:17.045Z,149.73
2023-04-23T14:41:44.812Z,155.15
2023-04-23T14:44:12.074Z,145.10
2023-04-23T14:46:39.211Z,155.77
2023-04-23T14:49:06.510Z,149.77
2023-04-23T14:51:33.679Z,152.57
2023-04-23T14:54:00.656Z,157.68
2023-04-23T14:56:27.662Z,174.07
2023-04-23T14:58:54.830Z,154.13
2023-04-23T15:01:21.894Z,173.60
2023-04-23T15:03:48.941Z,189.13
2023-04-23T15:06:16.169Z,200.25
2023-04-23T15:08:43.322Z,186.13
2023-04-23T15:11:13.483Z,197.95
2023-04-23T15:13:45.635Z,164.63
2023-04-23T15:19:11.955Z,148.07
2023-04-23T15:21:39.246Z,130.10
2023-04-23T15:24:07.854Z,128.45
2023-04-23T15:26:34.927Z,152.60
2023-04-23T15:29:03.094Z,151.48
2023-04-23T15:31:30.389Z,129.38
2023-04-23T15:33:57.463Z,139.20
2023-04-23T15:36:24.474Z,132.55
2023-04-23T15:38:51.394Z,168.43
2023-04-23T15:41:18.424Z,153.18
2023-04-23T15:43:46.639Z,184.15
2023-04-23T15:46:13.672Z,171.90
2023-04-23T15:48:40.706Z,159.32
2023-04-23T15:51:07.926Z,174.90
2023-04-23T15:53:34.858Z,177.63
2023-04-23T15:56:01.817Z,169.57
2023-04-23T15:58:28.828Z,163.40
2023-04-23T16:00:56.459Z,154.93
2023-04-23T16:03:23.767Z,155.18
2023-04-23T16:05:52.277Z,179.07
2023-04-23T16:08:19.322Z,170.43
2023-04-23T16:10:46.867Z,175.27
2023-04-23T16:13:13.912Z,178.68
2023-04-23T16:15:41.011Z,184.13
2023-04-23T16:18:08.008Z,171.93
2023-04-23T16:20:36.025Z,173.70
2023-04-23T16:23:02.988Z,175.32
2023-04-23T16:25:29.937Z,177.98
2023-04-23T16:27:57.044Z,164.32
2023-04-23T16:30:24.704Z,174.65
2023-04-23T16:32:52.189Z,190.85
2023-04-23T16:35:19.214Z,179.02
2023-04-23T16:37:46.166Z,183.00
2023-04-23T16:40:15.303Z,186.30
2023-04-23T16:42:43.428Z,189.88
2023-04-23T16:45:11.286Z,169.57
2023-04-23T16:47:38.579Z,174.70
2023-04-23T16:50:06.491Z,164.07
2023-04-23T16:52:33.595Z,175.40
2023-04-23T16:55:01.084Z,172.88
2023-04-23T16:57:28.522Z,169.93
2023-04-23T16:59:56.764Z,172.75
2023-04-23T17:02:23.909Z,172.05
2023-04-23T17:04:51.042Z,174.15
2023-04-23T17:07:18.214Z,174.70
2023-04-23T17:09:45.286Z,176.32
2023-04-23T17:12:12.383Z,176.70
2023-04-23T17:14:39.416Z,175.23
2023-04-23T17:17:06.437Z,177.15
2023-04-23T17:19:34.542Z,190.75
2023-04-23T17:22:01.553Z,192.70
2023-04-23T17:24:28.510Z,180.40
2023-04-23T17:26:56.305Z,212.95
2023-04-23T17:29:23.244Z,199.10
2023-04-23T17:31:50.735Z,193.02
2023-04-23T17:34:17.669Z,204.80
2023-04-23T17:36:44.603Z,193.85
2023-04-23T17:39:11.579Z,207.93
2023-04-23T17:41:38.627Z,203.73
2023-04-23T17:44:05.763Z,212.35
2023-04-23T17:46:32.730Z,204.52
2023-04-23T17:48:59.840Z,216.52
2023-04-23T17:51:27.304Z,209.93
2023-04-23T17:53:54.346Z,211.25
2023-04-23T17:56:21.764Z,203.25
2023-04-23T17:58:48.864Z,220.95
2023-04-23T18:01:17.656Z,242.23
2023-04-23T18:03:45.117Z,229.90
2023-04-23T18:06:12.624Z,231.70
2023-04-23T18:08:42.515Z,232.48
2023-04-23T18:11:09.801Z,234.25
2023-04-23T18:13:36.948Z,224.40
2023-04-23T18:16:04.377Z,220.33
2023-04-23T18:18:31.809Z,216.97
2023-04-23T18:20:59.240Z,222.47
2023-04-23T18:23:26.601Z,220.27
2023-04-23T18:25:54.061Z,218.10
2023-04-23T18:28:21.488Z,224.13
2023-04-23T18:30:48.959Z,231.23
2023-04-23T18:33:19.237Z,219.97
2023-04-23T18:35:49.573Z,211.10
2023-04-23T18:38:38.291Z,216.47
2023-04-23T18:41:05.466Z,227.37
2023-04-23T18:43:34.064Z,223.63
2023-04-23T18:46:02.782Z,223.77
2023-04-23T18:48:35.937Z,222.50
2023-04-23T18:51:17.142Z,222.43
2023-04-23T18:53:44.222Z,217.47
2023-04-23T18:56:11.207Z,222.30
2023-04-23T18:58:38.560Z,219.47
2023-04-23T19:01:06.034Z,217.00
2023-04-23T19:03:33.646Z,223.90
2023-04-23T19:06:01.049Z,213.50
2023-04-23T19:08:28.894Z,223.43
2023-04-23T19:10:56.682Z,211.77
2023-04-23T19:13:24.409Z,223.53
2023-04-23T19:15:51.541Z,216.17
2023-04-23T19:18:19.128Z,213.10
2023-04-23T19:20:46.213Z,213.20
2023-04-23T19:23:13.630Z,214.67
2023-04-23T19:25:41.021Z,222.07
2023-04-23T19:28:08.358Z,214.60
2023-04-23T19:30:35.919Z,213.07
2023-04-23T19:33:02.904Z,215.67
2023-04-23T19:35:30.269Z,223.53
2023-04-23T19:37:57.304Z,209.50
2023-04-23T19:40:24.285Z,217.37
2023-04-23T19:42:51.386Z,216.10
2023-04-23T19:45:18.871Z,217.50
2023-04-23T19:47:45.975Z,222.50
2023-04-23T19:50:14.012Z,219.23
2023-04-23T19:52:41.469Z,210.33
2023-04-23T19:55:09.027Z,223.80
2023-04-23T19:57:36.708Z,214.77
2023-04-23T20:00:13.341Z,217.50
2023-04-23T20:02:43.651Z,215.03
2023-04-23T20:05:11.265Z,222.67
2023-04-23T20:07:39.169Z,217.03
2023-04-23T20:10:07.345Z,219.63
2023-04-23T20:12:34.865Z,215.13
2023-04-23T20:15:02.273Z,216.33
2023-04-23T20:17:32.787Z,214.60
2023-04-23T20:20:01.747Z,215.13
2023-04-23T20:22:33.806Z,218.97
2023-04-23T20:25:01.962Z,211.07
2023-04-23T20:27:29.237Z,213.43
2023-04-23T20:29:56.733Z,215.03
2023-04-23T20:32:24.085Z,213.27
2023-04-23T20:34:52.574Z,215.23
2023-04-23T20:37:22.678Z,214.90
2023-04-23T20:39:50.056Z,215.30
2023-04-23T20:42:17.481Z,214.73
2023-04-23T20:44:48.937Z,214.43
2023-04-23T20:47:16.426Z,219.73
2023-04-23T20:49:44.067Z,218.53
2023-04-23T20:52:13.449Z,220.37
2023-04-23T20:54:40.648Z,221.90
2023-04-23T20:57:07.662Z,217.40
2023-04-23T20:59:35.014Z,215.97
2023-04-23T21:02:02.041Z,219.03
2023-04-23T21:04:29.078Z,220.97
2023-04-23T21:06:56.175Z,216.10
2023-04-23T21:09:23.640Z,218.27
2023-04-23T21:11:51.002Z,215.97
2023-04-23T21:14:17.940Z,222.53
2023-04-23T21:16:44.892Z,221.67
2023-04-23T21:19:12.236Z,216.77
2023-04-23T21:21:39.215Z,216.30
2023-04-23T21:24:06.784Z,216.30
2023-04-23T21:26:33.738Z,224.00
2023-04-23T21:29:01.030Z,219.70
2023-04-23T21:31:41.138Z,216.50
2023-04-23T21:34:09.174Z,217.10
2023-04-23T21:36:36.120Z,216.57
2023-04-23T21:39:03.658Z,218.37
2023-04-23T21:41:31.044Z,215.67
2023-04-23T21:43:58.030Z,219.27
2023-04-23T21:46:25.546Z,221.07
2023-04-23T21:48:55.641Z,218.73
2023-04-23T21:51:23.283Z,220.03
2023-04-23T21:53:51.192Z,217.03
2023-04-23T21:56:18.722Z,211.50
2023-04-23T21:58:45.861Z,219.70
2023-04-23T22:01:13.514Z,214.17
2023-04-23T22:03:46.808Z,217.27
2023-04-23T22:06:18.272Z,213.43
2023-04-23T22:08:46.612Z,212.47
2023-04-23T22:11:14.736Z,217.30
2023-04-23T22:13:41.902Z,219.57
2023-04-23T22:16:24.378Z,218.73
2023-04-23T22:18:56.524Z,217.60
2023-04-23T22:21:23.905Z,218.03
2023-04-23T22:23:51.376Z,213.03
2023-04-23T22:26:18.752Z,217.10
2023-04-23T22:28:45.810Z,219.87
2023-04-23T22:31:12.858Z,217.33
2023-04-23T22:33:40.214Z,218.73
2023-04-23T22:36:07.907Z,206.20
2023-04-23T22:38:35.446Z,214.60
2023-04-23T22:41:02.828Z,219.07
2023-04-23T22:43:30.192Z,216.47
2023-04-23T22:45:57.596Z,214.27
2023-04-23T22:48:24.866Z,214.13
2023-04-23T22:50:52.583Z,216.00
2023-04-23T22:53:20.227Z,216.73
2023-04-23T22:55:49.428Z,206.57
2023-04-23T22:58:16.940Z,213.20
2023-04-23T23:00:44.302Z,215.30
2023-04-23T23:03:11.881Z,213.40
2023-04-23T23:05:39.374Z,217.20
2023-04-23T23:08:07.056Z,209.00
2023-04-23T23:10:34.237Z,215.80
2023-04-23T23:13:01.300Z,215.03
2023-04-23T23:15:28.436Z,212.57
2023-04-23T23:17:55.979Z,213.77
2023-04-23T23:20:23.383Z,211.57
2023-04-23T23:22:50.782Z,213.90
2023-04-23T23:25:17.833Z,213.07
2023-04-23T23:27:45.315Z,214.83
2023-04-23T23:30:12.358Z,209.30
2023-04-23T23:32:39.820Z,213.90
2023-04-23T23:35:08.128Z,212.47
2023-04-23T23:37:35.479Z,210.67
2023-04-23T23:40:02.431Z,214.37
2023-04-23T23:42:29.789Z,213.37
2023-04-23T23:44:57.199Z,212.07
2023-04-23T23:47:24.276Z,211.63
2023-04-23T23:49:51.306Z,209.40
2023-04-23T23:52:18.676Z,215.97
2023-04-23T23:54:46.014Z,216.17
2023-04-23T23:57:12.941Z,210.03
2023-04-23T23:59:40.054Z,210.43
